Time;durP1;ratioP1;P1;durP2;ratioP2;P2;SDS_P1;SDS_P2;PMS_P1;PMS_P2;Temp;Humidity;BMP_temperature;BMP_pressure;BME280_temperature;BME280_humidity;BME280_pressure;Samples;Min_cycle;Max_cycle;Signal;HPM_P1;HPM_P2
2022/02/11 00:07:10;;;;;;;8.98;4.35;;;;;;;;;;5130370;28;20406;-75
2022/02/11 00:09:37;;;;;;;6.90;4.53;;;;;;;;;;5111616;28;20031;-75
2022/02/11 00:12:03;;;;;;;6.63;3.92;;;;;;;;;;5111285;28;20111;-75
2022/02/11 00:14:33;;;;;;;5.80;3.95;;;;;;;;;;5112853;28;20016;-75
2022/02/11 00:17:00;;;;;;;8.98;5.00;;;;;;;;;;5115745;28;20019;-74
2022/02/11 00:19:26;;;;;;;7.85;4.40;;;;;;;;;;5115635;28;20459;-75
2022/02/11 00:21:52;;;;;;;8.00;4.30;;;;;;;;;;5115269;28;20032;-75
2022/02/11 00:24:18;;;;;;;8.77;4.28;;;;;;;;;;5097133;28;20020;-75
2022/02/11 00:26:54;;;;;;;5.63;4.28;;;;;;;;;;5134172;27;20042;-75
2022/02/11 00:32:20;;;;;;;7.38;4.78;;;;;;;;;;5135947;27;20038;-75
2022/02/11 00:34:57;;;;;;;7.65;4.55;;;;;;;;;;5117250;27;20034;-75
2022/02/11 00:37:25;;;;;;;7.93;4.55;;;;;;;;;;5135964;27;20409;-75
2022/02/11 01:03:59;;;;;;;9.05;4.35;;;;;;;;;;5134737;27;20123;-75
2022/02/11 01:06:25;;;;;;;7.60;4.40;;;;;;;;;;5135418;27;20024;-75
2022/02/11 01:08:52;;;;;;;8.07;4.15;;;;;;;;;;5117059;27;20030;-75
2022/02/11 01:11:42;;;;;;;5.25;3.60;;;;;;;;;;5095933;28;20023;-75
2022/02/11 01:14:05;;;;;;;7.38;4.30;;;;;;;;;;5113849;28;20081;-74
2022/02/11 01:16:43;;;;;;;8.13;4.65;;;;;;;;;;5096195;28;20027;-75
2022/02/11 01:27:40;;;;;;;6.80;4.30;;;;;;;;;;5114185;28;20124;-75
2022/02/11 01:30:36;;;;;;;8.15;4.30;;;;;;;;;;5070574;28;20111;-75
2022/02/11 01:53:58;;;;;;;6.05;3.83;;;;;;;;;;5070173;28;20068;-74
2022/02/11 01:56:40;;;;;;;6.10;3.92;;;;;;;;;;5070871;28;20048;-74
2022/02/11 02:27:15;;;;;;;5.78;3.80;;;;;;;;;;5113527;28;20035;-74
2022/02/11 02:57:11;;;;;;;5.70;3.58;;;;;;;;;;5112569;28;20042;-75
2022/02/11 04:55:37;;;;;;;6.63;4.22;;;;;;;;;;5074862;28;20029;-74
2022/02/11 05:00:48;;;;;;;4.97;3.33;;;;;;;;;;5073726;28;20032;-74
2022/02/11 05:03:15;;;;;;;4.93;3.67;;;;;;;;;;5078267;28;20066;-74
2022/02/11 05:05:50;;;;;;;8.05;3.92;;;;;;;;;;5094564;28;20028;-74
2022/02/11 05:08:17;;;;;;;7.35;3.70;;;;;;;;;;5085426;28;20028;-75
2022/02/11 05:10:43;;;;;;;6.57;3.83;;;;;;;;;;5114229;28;20110;-74
2022/02/11 05:13:09;;;;;;;8.57;4.47;;;;;;;;;;5114142;28;20027;-74
2022/02/11 05:15:35;;;;;;;5.68;3.92;;;;;;;;;;5124253;27;20110;-74
2022/02/11 05:18:02;;;;;;;7.38;3.50;;;;;;;;;;5120753;27;20020;-74
2022/02/11 05:20:28;;;;;;;6.82;3.92;;;;;;;;;;5096088;28;20027;-74
2022/02/11 05:22:54;;;;;;;5.90;4.05;;;;;;;;;;5114529;28;20028;-74
2022/02/11 05:25:20;;;;;;;6.35;4.07;;;;;;;;;;5095571;28;20107;-74
2022/02/11 05:27:47;;;;;;;5.68;4.03;;;;;;;;;;5114256;28;20077;-74
2022/02/11 05:30:13;;;;;;;6.13;3.58;;;;;;;;;;5114225;28;20505;-74
2022/02/11 05:32:39;;;;;;;5.53;3.83;;;;;;;;;;5114352;28;20026;-75
2022/02/11 05:35:06;;;;;;;6.63;4.20;;;;;;;;;;5114155;28;20020;-74
2022/02/11 05:37:32;;;;;;;6.55;4.40;;;;;;;;;;5114465;28;20031;-74
2022/02/11 05:39:58;;;;;;;6.57;4.07;;;;;;;;;;5114230;28;20440;-74
2022/02/11 05:42:24;;;;;;;6.93;4.00;;;;;;;;;;5113403;28;20405;-74
2022/02/11 05:44:50;;;;;;;6.78;4.03;;;;;;;;;;5113739;28;20402;-74
2022/02/11 05:47:16;;;;;;;4.63;3.88;;;;;;;;;;5118889;27;20026;-74
2022/02/11 05:49:42;;;;;;;7.32;4.03;;;;;;;;;;5134526;27;20021;-74
2022/02/11 05:52:08;;;;;;;7.68;4.13;;;;;;;;;;5133963;27;20023;-74
2022/02/11 05:54:34;;;;;;;6.80;4.00;;;;;;;;;;5134554;27;20083;-74
2022/02/11 05:57:00;;;;;;;10.73;4.30;;;;;;;;;;5116057;27;20432;-74
2022/02/11 05:59:26;;;;;;;6.40;4.10;;;;;;;;;;5134308;27;20055;-74
2022/02/11 06:01:52;;;;;;;5.82;4.25;;;;;;;;;;5115470;27;20027;-74
2022/02/11 06:04:20;;;;;;;5.80;4.00;;;;;;;;;;5133486;27;20051;-74
2022/02/11 06:06:47;;;;;;;5.70;4.47;;;;;;;;;;5115666;27;20023;-74
2022/02/11 06:09:13;;;;;;;6.05;3.80;;;;;;;;;;5113189;28;20128;-74
2022/02/11 06:11:39;;;;;;;5.93;4.43;;;;;;;;;;5112973;28;20019;-74
2022/02/11 06:14:06;;;;;;;7.72;4.55;;;;;;;;;;5113103;28;20502;-74
2022/02/11 06:16:32;;;;;;;6.43;4.13;;;;;;;;;;5113237;28;20072;-74
2022/02/11 06:18:58;;;;;;;6.70;4.18;;;;;;;;;;5116399;27;20103;-74
2022/02/11 06:21:25;;;;;;;9.38;4.47;;;;;;;;;;5133562;27;20077;-75
2022/02/11 06:23:55;;;;;;;7.45;4.07;;;;;;;;;;5133853;27;20398;-74
2022/02/11 06:26:22;;;;;;;6.18;4.57;;;;;;;;;;5133922;27;20517;-74
2022/02/11 06:28:48;;;;;;;7.63;4.40;;;;;;;;;;5115221;27;20027;-74
2022/02/11 06:31:14;;;;;;;6.38;4.40;;;;;;;;;;5133401;27;20034;-74
2022/02/11 06:33:40;;;;;;;7.75;4.10;;;;;;;;;;5133349;27;20504;-74
2022/02/11 06:36:06;;;;;;;5.78;3.88;;;;;;;;;;5133193;27;20093;-74
2022/02/11 06:38:32;;;;;;;6.50;3.85;;;;;;;;;;5133605;27;20051;-74
2022/02/11 06:40:58;;;;;;;6.15;3.70;;;;;;;;;;5114960;27;20027;-74
2022/02/11 06:43:24;;;;;;;6.45;4.05;;;;;;;;;;5113792;27;20027;-74
2022/02/11 06:45:50;;;;;;;6.90;3.83;;;;;;;;;;5112651;28;20077;-74
2022/02/11 06:48:19;;;;;;;6.70;4.00;;;;;;;;;;5112698;28;20028;-74
2022/02/11 06:50:47;;;;;;;7.03;3.67;;;;;;;;;;5112876;28;20561;-74
2022/02/11 06:53:14;;;;;;;6.03;3.83;;;;;;;;;;5130326;27;20047;-74
2022/02/11 06:55:40;;;;;;;7.45;3.83;;;;;;;;;;5114782;27;20497;-74
2022/02/11 06:58:06;;;;;;;8.05;3.97;;;;;;;;;;5133558;27;20347;-74
2022/02/11 07:00:33;;;;;;;6.13;3.40;;;;;;;;;;5114668;27;20446;-74
2022/02/11 07:03:00;;;;;;;7.63;4.00;;;;;;;;;;5132893;27;20122;-74
2022/02/11 07:05:27;;;;;;;7.30;3.97;;;;;;;;;;5133056;27;20447;-74
2022/02/11 07:07:54;;;;;;;6.45;3.75;;;;;;;;;;5123500;27;20032;-74
2022/02/11 07:10:20;;;;;;;5.40;3.35;;;;;;;;;;5112250;28;20053;-74
2022/02/11 07:12:46;;;;;;;5.25;3.20;;;;;;;;;;5112637;28;20031;-74
2022/02/11 07:15:12;;;;;;;5.53;3.28;;;;;;;;;;5112062;28;20027;-74
2022/02/11 07:17:38;;;;;;;7.25;4.13;;;;;;;;;;5112352;28;20027;-74
2022/02/11 07:20:08;;;;;;;6.40;3.60;;;;;;;;;;5112223;28;20027;-74
2022/02/11 07:22:34;;;;;;;7.15;3.15;;;;;;;;;;5112716;28;20023;-74
2022/02/11 07:25:05;;;;;;;5.70;3.13;;;;;;;;;;5125180;28;20024;-74
2022/02/11 07:27:31;;;;;;;4.75;2.78;;;;;;;;;;5133189;28;20110;-74
2022/02/11 07:29:57;;;;;;;5.35;3.50;;;;;;;;;;5132637;28;20023;-74
2022/02/11 07:32:25;;;;;;;7.55;3.50;;;;;;;;;;5132399;28;20115;-74
2022/02/11 07:34:51;;;;;;;5.45;3.38;;;;;;;;;;5132757;28;20098;-74
2022/02/11 07:37:17;;;;;;;7.53;3.28;;;;;;;;;;5132253;28;20030;-74
2022/02/11 07:39:43;;;;;;;5.55;3.25;;;;;;;;;;5133030;28;20445;-74
2022/02/11 07:42:09;;;;;;;7.15;3.80;;;;;;;;;;5123189;28;20032;-74
2022/02/11 07:44:35;;;;;;;4.97;3.13;;;;;;;;;;5112279;28;20053;-74
2022/02/11 07:47:01;;;;;;;8.30;3.50;;;;;;;;;;5093491;28;20502;-74
2022/02/11 07:49:27;;;;;;;5.22;3.08;;;;;;;;;;5112115;28;20023;-74
2022/02/11 07:51:54;;;;;;;7.53;3.38;;;;;;;;;;5111446;28;20043;-75
2022/02/11 07:54:20;;;;;;;5.03;3.55;;;;;;;;;;5111873;28;20398;-75
2022/02/11 07:56:47;;;;;;;16.60;3.80;;;;;;;;;;5123300;28;20023;-74
2022/02/11 07:59:13;;;;;;;6.72;3.80;;;;;;;;;;5116565;28;20508;-75
2022/02/11 08:01:39;;;;;;;9.68;3.80;;;;;;;;;;5125104;28;20027;-75
2022/02/11 08:04:05;;;;;;;7.10;3.60;;;;;;;;;;5112902;28;20043;-78
2022/02/11 08:06:31;;;;;;;5.82;3.80;;;;;;;;;;5113392;28;20526;-79
2022/02/11 08:08:58;;;;;;;9.25;4.03;;;;;;;;;;5113510;28;20150;-78
2022/02/11 08:11:24;;;;;;;8.55;3.97;;;;;;;;;;5110942;28;20113;-75
2022/02/11 08:13:50;;;;;;;8.57;4.15;;;;;;;;;;5099299;28;20020;-77
2022/02/11 08:16:16;;;;;;;9.75;4.22;;;;;;;;;;5100576;28;20035;-76
2022/02/11 08:18:42;;;;;;;6.57;3.78;;;;;;;;;;5106488;28;20011;-74
2022/02/11 08:21:08;;;;;;;10.77;4.75;;;;;;;;;;5109442;28;20150;-79
2022/02/11 08:23:34;;;;;;;12.63;4.05;;;;;;;;;;5099594;28;20893;-77
2022/02/11 08:26:00;;;;;;;11.73;5.38;;;;;;;;;;5100710;28;20758;-76
2022/02/11 08:28:26;;;;;;;7.88;6.15;;;;;;;;;;5086565;28;20031;-76
2022/02/11 08:30:53;;;;;;;9.65;5.85;;;;;;;;;;5113699;28;20110;-76
2022/02/11 08:33:24;;;;;;;9.07;7.25;;;;;;;;;;5104999;28;20145;-75
2022/02/11 08:35:53;;;;;;;11.95;9.77;;;;;;;;;;5110559;27;20029;-73
2022/02/11 08:38:20;;;;;;;11.20;10.00;;;;;;;;;;5101324;27;20019;-75
2022/02/11 08:40:46;;;;;;;9.90;5.22;;;;;;;;;;5090085;28;20023;-73
2022/02/11 08:43:13;;;;;;;10.02;4.68;;;;;;;;;;5113367;27;20022;-73
2022/02/11 08:45:40;;;;;;;11.73;5.05;;;;;;;;;;5104266;27;20057;-73
2022/02/11 08:48:07;;;;;;;17.17;5.05;;;;;;;;;;5106997;27;20027;-75
2022/02/11 08:50:33;;;;;;;8.27;4.15;;;;;;;;;;5125490;27;20039;-73
2022/02/11 08:52:59;;;;;;;14.02;4.22;;;;;;;;;;5118045;27;20019;-70
2022/02/11 08:55:25;;;;;;;9.80;3.97;;;;;;;;;;5119676;27;20019;-71
2022/02/11 08:57:53;;;;;;;11.32;4.28;;;;;;;;;;5119717;27;20027;-74
2022/02/11 09:00:19;;;;;;;8.95;3.60;;;;;;;;;;5119250;27;20039;-74
2022/02/11 09:02:46;;;;;;;7.88;4.22;;;;;;;;;;5098374;27;20161;-73
2022/02/11 09:05:12;;;;;;;8.32;3.90;;;;;;;;;;5122556;27;20031;-76
2022/02/11 09:07:38;;;;;;;9.68;3.90;;;;;;;;;;5108655;27;20019;-75
2022/02/11 09:10:07;;;;;;;7.95;4.28;;;;;;;;;;5107909;27;20389;-75
2022/02/11 09:12:33;;;;;;;9.77;4.05;;;;;;;;;;5112088;27;20031;-77
2022/02/11 09:15:00;;;;;;;6.93;4.50;;;;;;;;;;5118590;27;20077;-77
2022/02/11 09:17:26;;;;;;;8.95;3.80;;;;;;;;;;5106248;28;20039;-77
2022/02/11 09:19:52;;;;;;;7.68;3.92;;;;;;;;;;5118156;27;20020;-77
2022/02/11 09:22:19;;;;;;;7.63;5.50;;;;;;;;;;5116353;27;20146;-75
2022/02/11 09:24:46;;;;;;;8.88;5.68;;;;;;;;;;5126498;27;20043;-75
2022/02/11 09:27:12;;;;;;;11.90;6.15;;;;;;;;;;5129854;27;20058;-74
2022/02/11 09:29:39;;;;;;;13.25;5.45;;;;;;;;;;5123108;27;20522;-74
2022/02/11 09:32:06;;;;;;;8.90;5.50;;;;;;;;;;5113310;27;20050;-78
2022/02/11 09:34:33;;;;;;;11.70;5.93;;;;;;;;;;5100275;27;20046;-76
2022/02/11 09:36:59;;;;;;;16.67;7.75;;;;;;;;;;5119403;27;20022;-75
2022/02/11 09:39:26;;;;;;;14.95;8.77;;;;;;;;;;5089988;27;20012;-74
2022/02/11 09:41:52;;;;;;;41.13;22.77;;;;;;;;;;5109623;27;20038;-78
2022/02/11 09:44:24;;;;;;;20.90;13.30;;;;;;;;;;5096225;27;20020;-76
2022/02/11 09:46:51;;;;;;;15.07;6.78;;;;;;;;;;5111777;27;20547;-77
2022/02/11 09:49:20;;;;;;;24.75;11.07;;;;;;;;;;5115440;27;20493;-75
2022/02/11 09:51:47;;;;;;;16.80;8.45;;;;;;;;;;5115487;27;20062;-75
2022/02/11 09:54:20;;;;;;;12.38;7.70;;;;;;;;;;5101466;28;20019;-75
2022/02/11 09:56:47;;;;;;;18.13;8.77;;;;;;;;;;5122055;27;20031;-76
2022/02/11 09:59:13;;;;;;;23.00;11.80;;;;;;;;;;5103929;27;20456;-79
2022/02/11 10:01:40;;;;;;;25.95;15.38;;;;;;;;;;5125239;27;20015;-74
2022/02/11 10:04:33;;;;;;;21.17;11.18;;;;;;;;;;5094947;28;20055;-74
2022/02/11 10:07:00;;;;;;;17.20;10.25;;;;;;;;;;5108454;27;20050;-76
2022/02/11 10:09:28;;;;;;;16.38;9.80;;;;;;;;;;5104663;27;20127;-77
2022/02/11 10:11:55;;;;;;;15.57;8.75;;;;;;;;;;5109574;27;20662;-76
2022/02/11 10:14:33;;;;;;;22.30;11.77;;;;;;;;;;5114736;27;20031;-76
2022/02/11 10:17:09;;;;;;;11.70;4.95;;;;;;;;;;5086981;28;20023;-75
2022/02/11 10:19:42;;;;;;;11.18;5.95;;;;;;;;;;5085611;27;20132;-75
2022/02/11 10:22:09;;;;;;;17.83;8.52;;;;;;;;;;5119447;27;20546;-74
2022/02/11 10:24:35;;;;;;;20.17;8.60;;;;;;;;;;5119947;27;20027;-73
2022/02/11 10:27:14;;;;;;;11.70;7.10;;;;;;;;;;5117321;27;20030;-77
2022/02/11 10:29:41;;;;;;;11.70;6.25;;;;;;;;;;5112370;27;20019;-78
2022/02/11 10:32:07;;;;;;;15.77;8.25;;;;;;;;;;5107557;27;20060;-78
2022/02/11 10:34:33;;;;;;;13.77;7.50;;;;;;;;;;5124633;27;20023;-75
2022/02/11 10:37:06;;;;;;;16.45;8.00;;;;;;;;;;5126023;27;20422;-74
2022/02/11 10:39:35;;;;;;;14.82;6.93;;;;;;;;;;5119766;27;20022;-74
2022/02/11 10:42:07;;;;;;;11.57;6.97;;;;;;;;;;5121808;27;20026;-74
2022/02/11 10:44:34;;;;;;;10.47;5.27;;;;;;;;;;5122173;27;20548;-76
2022/02/11 10:47:07;;;;;;;10.80;7.03;;;;;;;;;;5108913;27;20016;-75
2022/02/11 10:49:37;;;;;;;12.60;7.78;;;;;;;;;;5112768;27;20023;-72
2022/02/11 10:52:12;;;;;;;17.40;6.60;;;;;;;;;;5119996;27;20015;-74
2022/02/11 10:54:40;;;;;;;14.40;7.95;;;;;;;;;;5106021;27;20066;-74
2022/02/11 10:57:09;;;;;;;14.50;7.20;;;;;;;;;;5106421;27;20068;-73
2022/02/11 10:59:36;;;;;;;10.15;4.97;;;;;;;;;;5118507;27;20456;-74
2022/02/11 11:02:07;;;;;;;9.00;5.35;;;;;;;;;;5084639;28;20486;-73
2022/02/11 11:04:33;;;;;;;13.23;5.30;;;;;;;;;;5110108;27;20058;-74
2022/02/11 11:07:00;;;;;;;11.85;5.75;;;;;;;;;;5118089;27;20027;-77
2022/02/11 11:09:28;;;;;;;14.23;5.00;;;;;;;;;;5102842;27;20034;-74
2022/02/11 11:11:55;;;;;;;12.77;5.35;;;;;;;;;;5118862;27;20031;-75
2022/02/11 11:14:23;;;;;;;12.80;5.07;;;;;;;;;;5106964;27;20094;-75
2022/02/11 11:16:52;;;;;;;9.43;5.18;;;;;;;;;;5111177;28;20012;-74
2022/02/11 11:19:18;;;;;;;10.70;4.82;;;;;;;;;;5108221;27;20037;-73
2022/02/11 11:22:11;;;;;;;15.25;5.05;;;;;;;;;;5119151;28;20100;-73
2022/02/11 11:24:57;;;;;;;13.25;6.05;;;;;;;;;;5097103;28;20110;-75
2022/02/11 11:27:41;;;;;;;13.27;5.70;;;;;;;;;;5122570;28;20027;-76
2022/02/11 11:30:29;;;;;;;13.07;5.97;;;;;;;;;;5108042;28;20058;-78
2022/02/11 11:33:07;;;;;;;9.35;5.82;;;;;;;;;;5104456;28;20073;-77
2022/02/11 11:35:38;;;;;;;12.00;6.50;;;;;;;;;;5085442;28;20038;-77
2022/02/11 11:38:07;;;;;;;14.77;5.10;;;;;;;;;;5105162;28;20498;-78
2022/02/11 11:40:33;;;;;;;8.95;4.75;;;;;;;;;;5105835;28;20027;-73
2022/02/11 11:43:13;;;;;;;8.73;4.05;;;;;;;;;;5096093;28;20019;-76
2022/02/11 11:45:42;;;;;;;15.02;6.57;;;;;;;;;;5124884;28;20023;-76
2022/02/11 11:48:15;;;;;;;12.25;7.03;;;;;;;;;;5110694;28;20486;-74
2022/02/11 11:50:46;;;;;;;13.85;6.03;;;;;;;;;;5106039;28;20024;-74
2022/02/11 11:53:24;;;;;;;12.32;8.10;;;;;;;;;;5090322;28;20351;-75
2022/02/11 11:55:50;;;;;;;13.95;7.07;;;;;;;;;;5110136;28;20024;-74
2022/02/11 11:58:44;;;;;;;12.23;6.43;;;;;;;;;;5087320;28;20024;-73
2022/02/11 12:01:17;;;;;;;16.25;7.38;;;;;;;;;;5087430;28;20159;-73
2022/02/11 12:04:02;;;;;;;16.17;7.05;;;;;;;;;;5116090;28;20044;-74
2022/02/11 12:06:30;;;;;;;15.80;6.70;;;;;;;;;;5113473;28;20032;-74
2022/02/11 12:08:57;;;;;;;18.23;6.13;;;;;;;;;;5110690;28;20518;-77
2022/02/11 12:11:24;;;;;;;10.63;5.88;;;;;;;;;;5096177;28;20465;-77
2022/02/11 12:13:50;;;;;;;12.55;5.10;;;;;;;;;;5114103;28;20106;-76
2022/02/11 12:16:17;;;;;;;13.20;4.95;;;;;;;;;;5114398;27;20504;-76
2022/02/11 12:18:46;;;;;;;13.13;7.78;;;;;;;;;;5130629;27;20103;-77
2022/02/11 12:21:13;;;;;;;14.63;6.40;;;;;;;;;;5112874;28;20717;-77
2022/02/11 12:29:10;;;;;;;12.13;4.47;;;;;;;;;;5134609;27;20405;-78
2022/02/11 12:31:38;;;;;;;11.00;4.72;;;;;;;;;;5135576;27;20491;-79
2022/02/11 12:34:19;;;;;;;15.50;5.57;;;;;;;;;;5115699;27;20027;-77
2022/02/11 12:36:45;;;;;;;13.88;4.43;;;;;;;;;;5133166;27;20079;-76
2022/02/11 12:39:19;;;;;;;14.73;5.32;;;;;;;;;;5134666;27;20034;-75
2022/02/11 12:41:46;;;;;;;9.20;4.72;;;;;;;;;;5128367;27;20016;-74
2022/02/11 12:44:22;;;;;;;10.40;4.50;;;;;;;;;;5113943;28;20027;-74
2022/02/11 12:46:49;;;;;;;15.43;4.30;;;;;;;;;;5089519;27;20023;-74
2022/02/11 12:49:15;;;;;;;7.50;4.60;;;;;;;;;;5115010;28;20041;-74
2022/02/11 12:51:41;;;;;;;8.55;4.32;;;;;;;;;;5113445;28;20102;-75
2022/02/11 12:54:07;;;;;;;7.32;4.15;;;;;;;;;;5114351;27;20036;-76
2022/02/11 12:56:33;;;;;;;7.68;4.40;;;;;;;;;;5131895;27;20023;-76
2022/02/11 12:59:09;;;;;;;7.95;4.22;;;;;;;;;;5113746;27;20248;-76
2022/02/11 13:01:36;;;;;;;9.43;3.95;;;;;;;;;;5112992;27;20023;-75
2022/02/11 13:04:02;;;;;;;11.43;4.35;;;;;;;;;;5106731;27;20052;-73
2022/02/11 13:06:31;;;;;;;9.82;4.18;;;;;;;;;;5113973;27;20030;-73
2022/02/11 13:09:03;;;;;;;8.73;3.90;;;;;;;;;;5108094;27;20028;-74
2022/02/11 13:11:30;;;;;;;8.18;3.85;;;;;;;;;;5087533;28;20024;-74
2022/02/11 13:14:04;;;;;;;10.73;4.25;;;;;;;;;;5107106;28;20019;-74
2022/02/11 13:16:31;;;;;;;15.82;4.72;;;;;;;;;;5123367;27;20020;-74
2022/02/11 13:18:57;;;;;;;6.68;4.10;;;;;;;;;;5093341;27;20019;-74
2022/02/11 13:21:24;;;;;;;11.50;3.80;;;;;;;;;;5122375;27;20073;-75
2022/02/11 13:23:52;;;;;;;6.50;3.35;;;;;;;;;;5106963;28;20035;-73
2022/02/11 13:26:24;;;;;;;14.90;3.72;;;;;;;;;;5088759;28;20028;-77
2022/02/11 13:28:53;;;;;;;6.03;3.30;;;;;;;;;;5092036;28;20035;-78
2022/02/11 13:31:19;;;;;;;11.88;3.47;;;;;;;;;;5089535;28;20639;-76
2022/02/11 13:33:46;;;;;;;10.93;3.50;;;;;;;;;;5106265;28;20027;-74
2022/02/11 13:36:23;;;;;;;8.20;3.45;;;;;;;;;;5123985;27;20038;-74
2022/02/11 13:38:50;;;;;;;6.18;3.05;;;;;;;;;;5091622;28;20019;-74
2022/02/11 13:41:16;;;;;;;10.48;3.53;;;;;;;;;;5105532;28;20031;-71
2022/02/11 13:43:45;;;;;;;10.45;3.38;;;;;;;;;;5100682;27;20129;-77
2022/02/11 13:46:12;;;;;;;8.10;2.95;;;;;;;;;;5086116;28;20032;-72
2022/02/11 13:48:54;;;;;;;5.82;3.13;;;;;;;;;;5097999;27;20025;-72
2022/02/11 13:51:21;;;;;;;11.90;3.50;;;;;;;;;;5101118;27;20075;-73
2022/02/11 13:53:49;;;;;;;9.57;3.83;;;;;;;;;;5088172;28;20073;-74
2022/02/11 13:56:19;;;;;;;6.78;2.70;;;;;;;;;;5105032;28;20038;-75
2022/02/11 13:59:23;;;;;;;6.15;3.10;;;;;;;;;;5105819;28;20032;-75
2022/02/11 14:01:49;;;;;;;7.07;2.67;;;;;;;;;;4985625;28;20402;-77
2022/02/11 14:04:18;;;;;;;6.03;2.78;;;;;;;;;;5086821;28;20070;-77
2022/02/11 14:06:48;;;;;;;7.47;2.78;;;;;;;;;;5105860;27;20023;-76
2022/02/11 14:09:28;;;;;;;5.45;2.28;;;;;;;;;;5095765;27;20032;-73
2022/02/11 14:11:55;;;;;;;7.65;2.10;;;;;;;;;;5116542;27;20027;-73
2022/02/11 14:14:23;;;;;;;5.07;2.05;;;;;;;;;;5105343;27;20023;-74
2022/02/11 14:16:49;;;;;;;6.55;1.50;;;;;;;;;;5117949;27;20829;-80
2022/02/11 14:19:16;;;;;;;4.82;1.38;;;;;;;;;;5109395;28;20031;-77
2022/02/11 14:21:43;;;;;;;4.65;1.80;;;;;;;;;;5102377;28;20019;-76
2022/02/11 14:24:09;;;;;;;5.85;1.42;;;;;;;;;;5096887;27;20027;-75
2022/02/11 14:26:36;;;;;;;4.45;1.48;;;;;;;;;;5128498;27;20024;-76
2022/02/11 14:29:03;;;;;;;1.90;1.33;;;;;;;;;;5126484;27;20034;-79
2022/02/11 14:31:30;;;;;;;2.92;1.33;;;;;;;;;;5126579;27;20555;-77
2022/02/11 14:33:56;;;;;;;7.60;1.35;;;;;;;;;;5125081;27;20080;-74
2022/02/11 14:36:22;;;;;;;3.42;1.50;;;;;;;;;;5098748;27;20027;-74
2022/02/11 14:38:48;;;;;;;4.95;1.27;;;;;;;;;;5123976;27;20027;-75
2022/02/11 14:43:59;;;;;;;4.55;1.15;;;;;;;;;;5098243;28;20611;-76
2022/02/11 14:46:25;;;;;;;2.70;1.58;;;;;;;;;;5088955;28;20039;-75
2022/02/11 14:48:53;;;;;;;4.10;1.45;;;;;;;;;;5072788;28;20043;-75
2022/02/11 14:51:19;;;;;;;4.05;1.25;;;;;;;;;;5098770;28;20028;-75
2022/02/11 14:53:45;;;;;;;2.60;1.23;;;;;;;;;;5114005;27;20418;-76
2022/02/11 14:56:11;;;;;;;4.72;1.45;;;;;;;;;;5129718;27;20055;-77
2022/02/11 14:58:37;;;;;;;1.90;1.45;;;;;;;;;;5126093;27;20034;-75
2022/02/11 15:01:06;;;;;;;2.78;1.15;;;;;;;;;;5105842;28;20074;-75
2022/02/11 15:03:32;;;;;;;2.38;0.90;;;;;;;;;;5085499;28;20097;-74
2022/02/11 15:05:58;;;;;;;3.10;1.27;;;;;;;;;;5104398;28;20016;-76
2022/02/11 15:08:25;;;;;;;2.83;1.45;;;;;;;;;;5105866;28;20047;-75
2022/02/11 15:10:51;;;;;;;4.07;1.83;;;;;;;;;;5105501;28;20031;-75
2022/02/11 15:13:17;;;;;;;2.05;1.23;;;;;;;;;;5105639;28;20062;-79
2022/02/11 15:15:43;;;;;;;3.00;1.60;;;;;;;;;;5105384;28;20636;-76
2022/02/11 15:18:09;;;;;;;2.25;1.23;;;;;;;;;;5105931;28;20498;-75
2022/02/11 15:20:38;;;;;;;1.90;1.17;;;;;;;;;;5108783;28;20080;-75
2022/02/11 15:23:04;;;;;;;2.47;1.48;;;;;;;;;;5106846;28;20028;-76
2022/02/11 15:25:31;;;;;;;3.40;1.50;;;;;;;;;;5106240;28;20078;-75
2022/02/11 15:27:57;;;;;;;1.92;0.80;;;;;;;;;;5107042;28;20092;-76
2022/02/11 15:30:24;;;;;;;3.42;1.00;;;;;;;;;;5107099;28;20072;-75
2022/02/11 15:32:50;;;;;;;2.65;0.80;;;;;;;;;;5101667;28;20192;-74
2022/02/11 15:35:16;;;;;;;1.27;0.77;;;;;;;;;;5083417;28;20395;-71
2022/02/11 15:37:42;;;;;;;1.77;1.10;;;;;;;;;;5084751;28;20028;-72
2022/02/11 15:40:08;;;;;;;2.10;1.08;;;;;;;;;;5084783;28;20034;-76
2022/02/11 15:42:35;;;;;;;3.47;0.93;;;;;;;;;;5111248;28;20548;-76
2022/02/11 15:45:01;;;;;;;5.03;1.83;;;;;;;;;;5105775;28;20020;-75
2022/02/11 15:47:28;;;;;;;3.17;1.25;;;;;;;;;;5094098;27;20143;-73
2022/02/11 15:49:55;;;;;;;1.60;1.42;;;;;;;;;;5100433;28;20475;-72
2022/02/11 15:52:22;;;;;;;3.22;1.30;;;;;;;;;;5107375;28;20076;-75
2022/02/11 15:54:48;;;;;;;1.85;1.08;;;;;;;;;;5108996;28;20020;-76
2022/02/11 15:57:15;;;;;;;2.10;1.40;;;;;;;;;;5109549;28;20490;-75
2022/02/11 15:59:42;;;;;;;5.10;1.30;;;;;;;;;;5096014;28;20057;-72
2022/02/11 16:02:08;;;;;;;4.88;1.27;;;;;;;;;;5113673;27;20107;-72
2022/02/11 16:04:34;;;;;;;4.25;1.48;;;;;;;;;;5132545;27;20535;-72
2022/02/11 16:07:01;;;;;;;5.82;1.50;;;;;;;;;;5133276;27;20072;-72
2022/02/11 16:09:27;;;;;;;4.65;1.73;;;;;;;;;;5113996;28;20084;-72
2022/02/11 16:11:57;;;;;;;3.92;1.20;;;;;;;;;;5114932;28;20625;-72
2022/02/11 16:14:23;;;;;;;5.82;1.60;;;;;;;;;;5114843;28;20024;-72
2022/02/11 16:16:49;;;;;;;2.33;1.38;;;;;;;;;;5115094;28;20094;-72
2022/02/11 16:19:16;;;;;;;4.32;1.55;;;;;;;;;;5114684;28;20453;-72
2022/02/11 16:21:42;;;;;;;3.53;1.20;;;;;;;;;;5114682;28;20159;-72
2022/02/11 16:24:09;;;;;;;2.35;1.15;;;;;;;;;;5114821;28;20107;-72
2022/02/11 16:26:35;;;;;;;4.60;1.48;;;;;;;;;;5114960;28;20023;-73
2022/02/11 16:29:01;;;;;;;5.55;1.75;;;;;;;;;;5095968;28;20034;-72
2022/02/11 16:31:30;;;;;;;2.53;1.40;;;;;;;;;;5119448;27;20034;-72
2022/02/11 16:33:56;;;;;;;3.85;1.60;;;;;;;;;;5133213;27;20023;-72
2022/02/11 16:36:23;;;;;;;2.83;1.33;;;;;;;;;;5134686;27;20072;-72
2022/02/11 16:38:50;;;;;;;3.30;1.52;;;;;;;;;;5135349;27;20019;-72
2022/02/11 16:41:18;;;;;;;4.13;1.73;;;;;;;;;;5132539;27;20497;-72
2022/02/11 16:43:44;;;;;;;5.47;1.45;;;;;;;;;;5113801;28;20031;-72
2022/02/11 16:46:10;;;;;;;3.28;1.35;;;;;;;;;;5133733;27;20031;-72
2022/02/11 16:48:36;;;;;;;3.00;1.58;;;;;;;;;;5134821;27;20084;-72
2022/02/11 16:51:03;;;;;;;2.20;1.35;;;;;;;;;;5135160;27;20023;-72
2022/02/11 16:53:29;;;;;;;2.47;1.42;;;;;;;;;;5134008;27;20064;-71
2022/02/11 16:55:55;;;;;;;3.88;1.55;;;;;;;;;;5126877;27;20020;-72
2022/02/11 16:58:21;;;;;;;3.42;1.30;;;;;;;;;;5095447;28;20024;-72
2022/02/11 17:00:47;;;;;;;2.53;1.40;;;;;;;;;;5114448;28;20111;-72
2022/02/11 17:03:14;;;;;;;3.20;1.60;;;;;;;;;;5113940;28;20035;-72
2022/02/11 17:05:40;;;;;;;2.35;1.33;;;;;;;;;;5113495;28;20024;-72
2022/02/11 17:08:06;;;;;;;7.22;1.88;;;;;;;;;;5113860;28;20080;-72
2022/02/11 17:10:32;;;;;;;2.92;1.42;;;;;;;;;;5109789;28;20043;-72
2022/02/11 17:12:59;;;;;;;3.83;1.48;;;;;;;;;;5114152;28;20478;-72
2022/02/11 17:15:25;;;;;;;2.63;1.70;;;;;;;;;;5113294;28;20019;-72
2022/02/11 17:17:51;;;;;;;3.35;1.77;;;;;;;;;;5113629;28;20019;-71
2022/02/11 17:20:18;;;;;;;2.20;1.42;;;;;;;;;;5112999;28;20028;-72
2022/02/11 17:22:45;;;;;;;1.83;1.25;;;;;;;;;;5113944;28;20028;-72
2022/02/11 17:25:11;;;;;;;3.20;1.73;;;;;;;;;;5113377;28;20418;-72
2022/02/11 17:27:38;;;;;;;2.83;1.40;;;;;;;;;;5114084;28;20024;-72
2022/02/11 17:30:04;;;;;;;2.95;1.63;;;;;;;;;;5114280;28;20379;-72
2022/02/11 17:32:30;;;;;;;3.03;1.65;;;;;;;;;;5113765;28;20504;-72
2022/02/11 17:34:57;;;;;;;2.65;1.50;;;;;;;;;;5111267;27;20020;-71
2022/02/11 17:37:23;;;;;;;2.83;1.67;;;;;;;;;;5111998;28;20106;-72
2022/02/11 17:39:49;;;;;;;2.55;1.55;;;;;;;;;;5114110;28;20019;-73
2022/02/11 17:42:15;;;;;;;2.80;1.60;;;;;;;;;;5113795;28;20474;-73
2022/02/11 17:44:42;;;;;;;4.57;1.42;;;;;;;;;;5114352;28;20066;-73
2022/02/11 17:47:08;;;;;;;4.40;1.92;;;;;;;;;;5114080;28;20106;-73
2022/02/11 17:49:34;;;;;;;1.98;1.48;;;;;;;;;;5095935;28;20027;-73
2022/02/11 17:52:00;;;;;;;11.25;2.00;;;;;;;;;;5113896;28;20038;-73
2022/02/11 17:54:26;;;;;;;3.40;1.50;;;;;;;;;;5114697;28;20478;-73
2022/02/11 17:56:54;;;;;;;2.10;1.42;;;;;;;;;;5114530;28;20118;-73
2022/02/11 17:59:20;;;;;;;2.92;1.70;;;;;;;;;;5114215;28;20015;-73
2022/02/11 18:01:46;;;;;;;2.75;1.58;;;;;;;;;;5113721;28;20062;-73
2022/02/11 18:04:12;;;;;;;2.25;1.40;;;;;;;;;;5114032;28;20036;-73
2022/02/11 18:06:39;;;;;;;1.75;1.38;;;;;;;;;;5113815;28;20513;-73
2022/02/11 18:09:06;;;;;;;2.72;1.67;;;;;;;;;;5113014;28;20051;-73
2022/02/11 18:11:33;;;;;;;3.70;1.50;;;;;;;;;;5113272;28;20521;-73
2022/02/11 18:14:00;;;;;;;3.30;1.83;;;;;;;;;;5113971;28;20111;-73
2022/02/11 18:16:27;;;;;;;2.58;1.40;;;;;;;;;;5113743;28;20055;-73
2022/02/11 18:18:53;;;;;;;2.78;1.40;;;;;;;;;;5113851;28;20027;-73
2022/02/11 18:21:21;;;;;;;2.95;1.88;;;;;;;;;;5113645;28;20489;-73
2022/02/11 18:23:47;;;;;;;2.42;1.33;;;;;;;;;;5113697;28;20428;-73
2022/02/11 18:26:13;;;;;;;4.00;1.50;;;;;;;;;;5113151;28;20078;-73
2022/02/11 18:28:42;;;;;;;4.53;1.60;;;;;;;;;;5113732;28;20031;-73
2022/02/11 18:31:09;;;;;;;3.92;1.60;;;;;;;;;;5094814;28;20047;-73
2022/02/11 18:33:35;;;;;;;4.90;1.45;;;;;;;;;;5112991;28;20509;-73
2022/02/11 18:36:01;;;;;;;3.28;1.77;;;;;;;;;;5113338;28;20023;-73
2022/02/11 18:38:27;;;;;;;3.05;1.58;;;;;;;;;;5095222;28;20024;-73
2022/02/11 18:40:53;;;;;;;3.30;1.60;;;;;;;;;;5112973;28;20050;-73
2022/02/11 18:43:19;;;;;;;3.83;1.50;;;;;;;;;;5130891;27;20035;-73
2022/02/11 18:45:48;;;;;;;3.45;2.00;;;;;;;;;;5134065;27;20034;-73
2022/02/11 18:48:21;;;;;;;3.10;1.58;;;;;;;;;;5133706;27;20035;-73